createdAt,value
2023-03-01T00:02:40.304Z,26.40
2023-03-01T00:08:02.394Z,24.60
2023-03-01T00:13:24.356Z,25.92
2023-03-01T00:18:46.699Z,25.10
2023-03-01T00:24:09.432Z,25.38
2023-03-01T00:29:31.303Z,25.25
2023-03-01T00:34:53.189Z,26.00
2023-03-01T00:40:15.330Z,26.40
2023-03-01T00:45:37.185Z,25.83
2023-03-01T00:51:08.616Z,26.67
2023-03-01T00:56:31.647Z,26.15
2023-03-01T01:01:53.746Z,28.65
2023-03-01T01:07:16.264Z,27.45
2023-03-01T01:12:38.106Z,28.45
2023-03-01T01:18:00.024Z,27.02
2023-03-01T01:23:21.961Z,27.63
2023-03-01T01:28:43.916Z,27.60
2023-03-01T01:34:08.490Z,28.48
2023-03-01T01:39:30.625Z,27.73
2023-03-01T01:45:40.764Z,27.98
2023-03-01T01:51:02.657Z,26.90
2023-03-01T01:56:26.644Z,26.65
2023-03-01T02:01:48.562Z,28.50
2023-03-01T02:07:16.193Z,27.92
2023-03-01T02:12:39.638Z,27.50
2023-03-01T02:18:04.021Z,27.02
2023-03-01T02:23:26.057Z,26.70
2023-03-01T02:28:48.172Z,28.08
2023-03-01T02:34:22.549Z,26.02
2023-03-01T02:39:49.489Z,28.08
2023-03-01T02:45:11.483Z,26.25
2023-03-01T02:51:01.307Z,26.90
2023-03-01T02:56:23.392Z,26.67
2023-03-01T03:01:46.536Z,27.08
2023-03-01T03:07:09.240Z,25.95
2023-03-01T03:12:31.208Z,26.00
2023-03-01T03:17:54.299Z,25.80
2023-03-01T03:23:16.168Z,25.77
2023-03-01T03:28:38.023Z,25.70
2023-03-01T03:33:59.877Z,24.13
2023-03-01T03:39:21.715Z,24.30
2023-03-01T03:44:43.572Z,22.92
2023-03-01T03:50:05.776Z,24.08
2023-03-01T03:55:27.687Z,24.50
2023-03-01T04:00:52.122Z,25.67
2023-03-01T04:06:15.286Z,25.58
2023-03-01T04:11:37.181Z,27.08
2023-03-01T04:16:59.070Z,26.75
2023-03-01T04:22:20.903Z,25.92
2023-03-01T04:27:42.754Z,26.83
2023-03-01T04:33:08.604Z,26.40
2023-03-01T04:38:30.522Z,26.33
2023-03-01T04:43:52.416Z,26.50
2023-03-01T04:49:14.248Z,28.27
2023-03-01T04:54:36.707Z,26.58
2023-03-01T04:59:58.693Z,27.23
2023-03-01T05:05:27.392Z,25.70
2023-03-01T05:10:52.487Z,26.23
2023-03-01T05:16:14.438Z,25.63
2023-03-01T05:21:36.306Z,26.30
2023-03-01T05:26:58.295Z,27.77
2023-03-01T05:32:20.214Z,26.75
2023-03-01T05:37:50.174Z,27.17
2023-03-01T05:43:13.616Z,28.10
2023-03-01T05:48:35.538Z,29.73
2023-03-01T05:53:57.440Z,29.83
2023-03-01T05:59:19.280Z,29.90
2023-03-01T06:04:41.317Z,30.95
2023-03-01T06:10:05.081Z,30.45
2023-03-01T06:15:27.131Z,31.40
2023-03-01T06:20:56.471Z,28.98
2023-03-01T06:26:18.389Z,31.58
2023-03-01T06:31:40.288Z,29.52
2023-03-01T06:37:02.161Z,28.73
2023-03-01T06:42:24.050Z,30.20
2023-03-01T06:47:46.175Z,29.63
2023-03-01T06:53:08.146Z,28.98
2023-03-01T06:58:30.041Z,29.30
2023-03-01T07:03:51.960Z,27.40
2023-03-01T07:09:13.794Z,27.77
2023-03-01T07:14:35.619Z,33.65
2023-03-01T07:19:58.218Z,25.17
2023-03-01T07:25:20.112Z,24.83
2023-03-01T07:30:41.984Z,25.08
2023-03-01T07:36:05.375Z,25.77
2023-03-01T07:41:27.237Z,24.40
2023-03-01T07:46:49.084Z,22.02
2023-03-01T07:52:12.225Z,21.13
2023-03-01T07:57:34.118Z,19.65
2023-03-01T08:02:56.041Z,19.73
2023-03-01T08:08:18.687Z,19.23
2023-03-01T08:13:40.833Z,19.00
2023-03-01T08:19:11.113Z,20.88
2023-03-01T08:24:33.014Z,20.58
2023-03-01T08:29:54.858Z,19.35
2023-03-01T08:35:17.417Z,19.85
2023-03-01T08:40:39.276Z,19.08
2023-03-01T08:46:01.262Z,18.55
2023-03-01T08:51:24.597Z,18.08
2023-03-01T08:56:47.273Z,19.08
2023-03-01T09:02:18.125Z,17.77
2023-03-01T09:07:39.979Z,17.75
2023-03-01T09:13:02.653Z,17.13
2023-03-01T09:18:24.716Z,16.73
2023-03-01T09:23:48.407Z,17.13
2023-03-01T09:29:10.255Z,18.02
2023-03-01T09:34:32.222Z,15.23
2023-03-01T09:39:54.112Z,13.68
2023-03-01T09:45:36.483Z,13.80
2023-03-01T09:50:58.996Z,14.32
2023-03-01T09:56:27.938Z,14.07
2023-03-01T10:02:01.675Z,13.25
2023-03-01T10:07:46.770Z,12.63
2023-03-01T10:13:24.893Z,15.20
2023-03-01T10:18:53.267Z,16.95
2023-03-01T10:24:18.586Z,16.20
2023-03-01T10:29:49.560Z,17.90
2023-03-01T10:35:18.074Z,16.30
2023-03-01T10:40:56.127Z,16.42
2023-03-01T10:46:44.203Z,17.30
2023-03-01T10:52:20.769Z,16.52
2023-03-01T10:57:43.146Z,16.10
2023-03-01T11:03:13.354Z,16.40
2023-03-01T11:08:47.168Z,16.45
2023-03-01T11:14:26.278Z,15.55
2023-03-01T11:20:13.790Z,16.25
2023-03-01T11:25:38.995Z,15.80
2023-03-01T11:31:12.042Z,16.30
2023-03-01T11:36:36.816Z,16.55
2023-03-01T11:42:19.082Z,14.43
2023-03-01T11:47:44.179Z,14.15
2023-03-01T11:53:10.414Z,12.85
2023-03-01T11:58:46.776Z,12.95
2023-03-01T12:04:30.435Z,12.60
2023-03-01T12:10:21.718Z,12.73
2023-03-01T12:16:11.026Z,13.13
2023-03-01T12:21:54.821Z,11.98
2023-03-01T12:27:43.701Z,11.13
2023-03-01T12:33:29.392Z,11.25
2023-03-01T12:39:04.914Z,11.90
2023-03-01T12:44:53.877Z,10.32
2023-03-01T12:50:21.807Z,10.20
2023-03-01T12:55:44.299Z,10.43
2023-03-01T13:01:06.239Z,10.48
2023-03-01T13:06:44.207Z,10.77
2023-03-01T13:12:44.615Z,10.07
2023-03-01T13:18:12.599Z,10.65
2023-03-01T13:23:40.063Z,12.00
2023-03-01T13:29:02.123Z,12.43
2023-03-01T13:34:44.049Z,11.98
2023-03-01T13:40:25.972Z,12.23
2023-03-01T13:45:48.689Z,12.80
2023-03-01T13:51:12.752Z,11.75
2023-03-01T13:56:38.149Z,11.70
2023-03-01T14:02:02.610Z,12.65
2023-03-01T14:07:25.883Z,12.23
2023-03-01T14:13:16.532Z,13.55
2023-03-01T14:19:16.072Z,12.18
2023-03-01T14:24:49.282Z,12.13
2023-03-01T14:30:20.578Z,12.38
2023-03-01T14:35:42.607Z,12.98
2023-03-01T14:41:10.079Z,12.48
2023-03-01T14:46:36.366Z,13.52
2023-03-01T14:52:00.151Z,12.70
2023-03-01T14:57:24.694Z,14.63
2023-03-01T15:02:49.729Z,15.65
2023-03-01T15:08:24.669Z,15.38
2023-03-01T15:13:46.607Z,15.30
2023-03-01T15:19:08.569Z,16.25
2023-03-01T15:24:30.473Z,16.48
2023-03-01T15:30:00.849Z,16.52
2023-03-01T15:35:44.248Z,16.77
2023-03-01T15:41:23.448Z,18.27
2023-03-01T15:46:49.114Z,17.13
2023-03-01T15:52:18.455Z,16.67
2023-03-01T15:57:40.295Z,16.50
2023-03-01T16:03:02.260Z,16.90
2023-03-01T16:08:24.134Z,17.40
2023-03-01T16:13:46.952Z,17.10
2023-03-01T16:19:08.860Z,18.13
2023-03-01T16:24:30.851Z,18.23
2023-03-01T16:29:52.727Z,17.58
2023-03-01T16:35:18.233Z,16.70
2023-03-01T16:40:40.099Z,16.75
2023-03-01T16:46:02.059Z,16.48
2023-03-01T16:51:25.196Z,15.57
2023-03-01T16:56:47.091Z,15.00
2023-03-01T17:02:13.376Z,13.38
2023-03-01T17:07:36.331Z,13.48
2023-03-01T17:12:58.169Z,14.57
2023-03-01T17:18:19.994Z,15.55
2023-03-01T17:23:44.901Z,14.98
2023-03-01T17:29:06.905Z,14.55
2023-03-01T17:34:28.818Z,14.13
2023-03-01T17:39:50.971Z,15.45
2023-03-01T17:45:13.013Z,14.43
2023-03-01T17:50:38.932Z,12.30
2023-03-01T17:56:03.643Z,14.77
2023-03-01T18:01:25.634Z,13.32
2023-03-01T18:06:47.556Z,13.07
2023-03-01T18:12:09.509Z,12.85
2023-03-01T18:17:31.367Z,13.25
2023-03-01T18:22:53.322Z,13.70
2023-03-01T18:28:15.278Z,14.25
2023-03-01T18:33:38.607Z,13.20
2023-03-01T18:39:02.946Z,14.40
2023-03-01T18:44:24.869Z,15.27
2023-03-01T18:49:46.853Z,15.32
2023-03-01T18:55:09.705Z,15.05
2023-03-01T19:00:33.387Z,15.50
2023-03-01T19:05:55.547Z,16.25
2023-03-01T19:11:17.732Z,16.02
2023-03-01T19:16:39.754Z,16.08
2023-03-01T19:22:06.004Z,16.17
2023-03-01T19:32:51.236Z,17.70
2023-03-01T19:38:13.296Z,18.02
2023-03-01T19:43:35.761Z,19.33
2023-03-01T19:48:57.833Z,18.30
2023-03-01T19:54:19.764Z,21.60
2023-03-01T19:59:41.703Z,21.65
2023-03-01T20:05:03.705Z,21.83
2023-03-01T20:10:26.503Z,22.83
2023-03-01T20:15:48.573Z,22.27
2023-03-01T20:21:21.719Z,22.02
2023-03-01T20:26:45.696Z,23.55
2023-03-01T20:32:07.664Z,25.55
2023-03-01T20:37:29.510Z,23.83
2023-03-01T20:42:51.411Z,23.77
2023-03-01T20:48:13.298Z,24.77
2023-03-01T20:53:35.412Z,25.15
2023-03-01T20:58:57.280Z,26.65
2023-03-01T21:04:19.183Z,27.35
2023-03-01T21:09:41.379Z,27.63
2023-03-01T21:15:03.781Z,27.10
2023-03-01T21:20:25.697Z,28.80
2023-03-01T21:25:47.630Z,27.63
2023-03-01T21:31:24.711Z,27.75
2023-03-01T21:36:46.778Z,27.17
2023-03-01T21:42:08.722Z,28.92
2023-03-01T21:47:31.183Z,28.02
2023-03-01T21:52:53.073Z,28.88
2023-03-01T21:58:15.528Z,27.73
2023-03-01T22:03:38.338Z,29.38
2023-03-01T22:09:06.396Z,28.30
2023-03-01T22:14:29.968Z,27.17
2023-03-01T22:19:51.962Z,28.50
2023-03-01T22:25:13.806Z,29.85
2023-03-01T22:30:35.666Z,28.77
2023-03-01T22:35:57.727Z,27.98
2023-03-01T22:41:19.634Z,30.17
2023-03-01T22:46:42.611Z,30.42
2023-03-01T22:52:04.957Z,29.90
2023-03-01T22:57:26.778Z,30.50
2023-03-01T23:02:48.712Z,30.17
2023-03-01T23:08:10.646Z,31.33
2023-03-01T23:13:32.534Z,32.40
2023-03-01T23:18:55.820Z,34.03
2023-03-01T23:24:20.655Z,35.03
2023-03-01T23:29:43.946Z,33.60
2023-03-01T23:35:08.536Z,33.55
2023-03-01T23:40:30.347Z,33.70
2023-03-01T23:45:55.266Z,32.45
2023-03-01T23:51:18.160Z,33.83
2023-03-01T23:56:41.683Z,34.08
